Old Forge, NY (13420)

7:51 AM EDT on July 14, 2014 (GMT -0400)
Information Center (KNYOLDFO2) Elev 1713 ft | 43.71 °N, 74.97 °W | Change Station
Active Advisory: Special Statement Active Notice: Public Information Statement

Current weather conditions updated 4 minutes ago

Mostly Cloudy
Mostly Cloudy
64.0 °F
Feels Like 64.0 °F
N
0.0
Wind Variable Wind from SW
Gusts 0.0 mph

Today is forecast to be Warmer than yesterday.

Today
High -- | Low -- °F
--% Chance of Precip.
Yesterday
High -- | Low -- °F
Precip. -- in
5:30 AM 8:39 PM
Waning Gibbous, 94% visible
Pressure 29.90 in
Visibility 7.0 miles
Clouds Mostly Cloudy 1600 ft
Dew Point 64 °F
Humidity 100%
Rainfall -999.00 in
Snow Depth Not available.
UV 0 out of 12
Pollen 4.70 out of 12
Ozone Good
Flu Activity Widespread
SPECI KRME 141108Z 00000KT 7SM BKN016 20/19 A2990 RMK AO2 T02000194

More Conditions Fewer Conditions

Pressure 29.90 in
Visibility 7.0 miles
Clouds Mostly Cloudy 1600 ft
Dew Point 64 °F
Humidity 100%
Rainfall -999.00 in
Snow Depth Not available.
UV 0 out of 12
Pollen 4.70 out of 12
Ozone Good
Flu Activity Widespread
SPECI KRME 141108Z 00000KT 7SM BKN016 20/19 A2990 RMK AO2 T02000194

More Conditions Fewer Conditions

10-Day Weather Forecast

Almanac

Astronomy

Jul. 14, 2014 Rise Set
Actual Time 5:30 AM EDT 8:39 PM EDT
Civil Twilight 4:55 AM EDT 9:14 PM EDT
Nautical Twilight 4:11 AM EDT 9:59 PM EDT
Astronomical Twilight 3:16 AM EDT 10:53 PM EDT
Moon 10:00 PM EDT 8:17 AM EDT
Length of Visible Light 16h 18m
Length of Day
15h 09m
Tomorrow will be 1m 32s shorter.
Waning Gibbous, 94% of the Moon is Illuminated
Today
Waning Gibbous
Jul 18
Last Quarter
Jul 26
New
Aug 3
First Quarter
Aug 10
Full

Today's Extremes

State Highs State Lows

Community

WunderPhotos

Upload Photos

1,733,612 photos uploaded!

Nearby

Air Quality

  Air Quality AQ Index Pollutant
Yesterday Good
OZONE
Current Good
OZONE
Monday Good
OZONE
Monday Good
PM2.5

Snow Depth

Station Depth Elevation
No new snow has been reported.

Earthquake Activity

City Distance Mag. Time & Date
No recent earthquake activity has been reported nearby.
Minimum magnitude displayed is 2.5.

Coastal Water Temperatures

Place Temperature
No Stations Reporting

Nearby Weather Stations

Station Location Temp. Dew Point Humidity Wind Precip. Elev Updated Type
Information Center, Old Forge, NY 64.0 °F 64 °F 100% SW  at  0.0 mph 0.00 in / hr 1713 ft 7:46 AM EDT Normal
Thirsty Pond, Eagle Bay, NY 63.8 °F 62 °F 95% SW  at  0.0 mph 0.00 in / hr 2126 ft 7:47 AM EDT Normal
Matts Draft House, Inlet, NY 63.5 °F 62 °F 94% WSW  at  0.0 mph 0.00 in / hr 1775 ft 7:51 AM EDT Rapid Fire
NEPP Stillwater Reservoir, NY, Thendara, NY 62 °F - - North  at  - 0.00 in / hr 1681 ft 7:05 AM EDT MADIS
Raquette Lake Navigation, Raquette Lake, NY 65.4 °F 64 °F 94% WSW  at  0.0 mph 0.00 in / hr 1785 ft 7:51 AM EDT Rapid Fire
Red Pond Lane, Boonville, NY 66.8 °F 66 °F 98% ESE  at  0.0 mph 0.00 in / hr 1148 ft 7:51 AM EDT Rapid Fire

Show More Stations Show Fewer Stations